Britney Lee — WDC2895 — position and weather

sailwx.info

Track history (hours):
 
Tides and Currents Weather Stations Pressure Air Temp Water Temp Dewpoint Dewpoint Depression Visibility Wind Speed Wind Dir Waves Ship Positions

Britney Lee

Owner: Western Rivers Boat Management, Inc., Paducah, KY. More information available from US FCC via Universal Licensing System and Coast Guard Vessel Documentation Center.

Last reported at 2015-Apr-26 12:07 UTC. Time now 2015-May-07 04:36 UTC.
Position N 30°57' W 091°40'.
Warning: this ship's position is 10 days out of date.

Length 44 m.

Type: Tow > 200 m length. MMSI: 367129650.

Date/timePositionNaut miles runAvg speedWind from/ knotsBaromVisibWave heightAir tempDewpointWater temp
2015-Apr-26 12:07N 30°57' W 091°40'3 4.5
2015-Apr-26 11:25N 30°55' W 091°37'12 2.8
2015-Apr-26 07:13N 30°44' W 091°33'3 4.1
2015-Apr-26 06:27N 30°44' W 091°29'5 4.1
2015-Apr-26 05:10N 30°45' W 091°23'3 4.2
2015-Apr-26 04:33N 30°43' W 091°21'5 4.9
2015-Apr-26 03:33N 30°39' W 091°18'4 4.1
2015-Apr-26 02:33N 30°35' W 091°19'4 3.9
2015-Apr-26 01:34N 30°34' W 091°15'4 3.7
2015-Apr-26 00:33N 30°30' W 091°17'3 3.0
2015-Apr-25 23:33N 30°31' W 091°13'3 3.2
2015-Apr-25 22:34N 30°28' W 091°12'4 4.0
2015-Apr-25 21:33N 30°24' W 091°13'1 0.7
2015-Apr-25 20:33N 30°24' W 091°13'0 0.0
2015-Apr-25 19:33N 30°24' W 091°13'0 0.0
2015-Apr-25 18:33N 30°24' W 091°13'0 0.4
2015-Apr-25 17:33N 30°23' W 091°13'3 2.7
2015-Apr-25 16:33N 30°21' W 091°12'2 2.3
2015-Apr-25 15:29N 30°19' W 091°10'4 1.8
2015-Apr-25 13:32N 30°16' W 091°08'4 4.1
2015-Apr-25 12:30N 30°12' W 091°09'  
2015-Apr-23 06:05N 29°55' W 090°08'3 4.7
2015-Apr-23 05:30N 29°55' W 090°05'4 3.8
2015-Apr-23 04:30N 29°57' W 090°01'20 1.3
2015-Apr-22 13:33N 29°38' W 089°55'4 3.8
2015-Apr-22 12:31N 29°41' W 089°58'7 6.9
2015-Apr-22 11:33N 29°47' W 090°01'7 6.2
2015-Apr-22 10:27N 29°53' W 089°57'3 2.3
2015-Apr-22 09:18N 29°55' W 089°58'5 6.9
2015-Apr-22 08:33N 29°57' W 090°04'8 2.4
2015-Apr-22 05:20N 29°55' W 090°12'  
Track history (hours):
 
Tides and Currents Weather Stations Pressure Air Temp Water Temp Dewpoint Dewpoint Depression Visibility Wind Speed Wind Dir Waves Ship Positions

Britney Lee

Owner: Western Rivers Boat Management, Inc., Paducah, KY. More information available from US FCC via Universal Licensing System and Coast Guard Vessel Documentation Center.

Last reported at 2015-Apr-26 12:07 UTC. Time now 2015-May-07 04:36 UTC.
Position N 30°57' W 091°40'.
Warning: this ship's position is 10 days out of date.

Length 44 m.

Type: Tow > 200 m length. MMSI: 367129650.

Date/timePositionNaut miles runAvg speedWind from/ knotsBaromVisibWave heightAir tempDewpointWater temp
2015-Apr-26 12:07N 30°57' W 091°40'3 4.5
2015-Apr-26 11:25N 30°55' W 091°37'12 2.8
2015-Apr-26 07:13N 30°44' W 091°33'3 4.1
2015-Apr-26 06:27N 30°44' W 091°29'5 4.1
2015-Apr-26 05:10N 30°45' W 091°23'3 4.2
2015-Apr-26 04:33N 30°43' W 091°21'5 4.9
2015-Apr-26 03:33N 30°39' W 091°18'4 4.1
2015-Apr-26 02:33N 30°35' W 091°19'4 3.9
2015-Apr-26 01:34N 30°34' W 091°15'4 3.7
2015-Apr-26 00:33N 30°30' W 091°17'3 3.0
2015-Apr-25 23:33N 30°31' W 091°13'3 3.2
2015-Apr-25 22:34N 30°28' W 091°12'4 4.0
2015-Apr-25 21:33N 30°24' W 091°13'1 0.7
2015-Apr-25 20:33N 30°24' W 091°13'0 0.0
2015-Apr-25 19:33N 30°24' W 091°13'0 0.0
2015-Apr-25 18:33N 30°24' W 091°13'0 0.4
2015-Apr-25 17:33N 30°23' W 091°13'3 2.7
2015-Apr-25 16:33N 30°21' W 091°12'2 2.3
2015-Apr-25 15:29N 30°19' W 091°10'4 1.8
2015-Apr-25 13:32N 30°16' W 091°08'4 4.1
2015-Apr-25 12:30N 30°12' W 091°09'  
2015-Apr-23 06:05N 29°55' W 090°08'3 4.7
2015-Apr-23 05:30N 29°55' W 090°05'4 3.8
2015-Apr-23 04:30N 29°57' W 090°01'20 1.3
2015-Apr-22 13:33N 29°38' W 089°55'4 3.8
2015-Apr-22 12:31N 29°41' W 089°58'7 6.9
2015-Apr-22 11:33N 29°47' W 090°01'7 6.2
2015-Apr-22 10:27N 29°53' W 089°57'3 2.3
2015-Apr-22 09:18N 29°55' W 089°58'5 6.9
2015-Apr-22 08:33N 29°57' W 090°04'8 2.4
2015-Apr-22 05:20N 29°55' W 090°12'  

Dump ship's entire track history